This is the latest recevied weather packets stored in our database for station/object G6LTT. If no packets are shown the sender has not sent any weather packets the latest 10 day(s).
| Time | Temp. | Humidity | Pressure | Rain* | Wind** | Luminosity | Snow |
|---|---|---|---|---|---|---|---|
| 1777704843 | 11.11° C | 85% | 1046.6 hPa | 0 mm | - | - | - |
| 1777703223 | 10.56° C | 89% | 1046.8 hPa | 0 mm | - | - | - |
| 1777702683 | 10° C | 90% | 1046.7 hPa | 0 mm | - | - | - |
| 1777701603 | 10° C | 91% | 1046.5 hPa | 0 mm | - | - | - |
| 1777699628 | 10° C | 91% | 1046.6 hPa | 0 mm | - | - | - |
| 1777696024 | 9.44° C | 91% | 1046.6 hPa | 0 mm | - | - | - |
| 1777694943 | 10° C | 90% | 1046.4 hPa | 0 mm | - | - | - |
| 1777690803 | 10° C | 88% | 1046.8 hPa | 0 mm | - | - | - |
| 1777690577 | 10° C | 87% | 1046.8 hPa | 0 mm | - | - | - |
| 1777689363 | 10.56° C | 86% | 1046.9 hPa | 0 mm | - | - | - |
| 1777688954 | 10.56° C | 86% | 1046.9 hPa | 0 mm | - | - | - |
| 1777685763 | 11.11° C | 82% | 1047.1 hPa | 0 mm | - | - | - |
| 1777684143 | 11.67° C | 79% | 1047.1 hPa | 0 mm | - | - | - |
| 1777683373 | 11.67° C | 78% | 1047.8 hPa | 0 mm | - | - | - |
| 1777682703 | 12.22° C | 77% | 1047.7 hPa | 0 mm | - | - | - |
| 1777682163 | 12.22° C | 75% | 1047.6 hPa | 0 mm | - | - | - |
| 1777681083 | 12.22° C | 73% | 1047.9 hPa | 0 mm | - | - | - |
| 1777679643 | 12.78° C | 69% | 1047.8 hPa | 0 mm | - | - | - |
| 1777679236 | 13.33° C | 68% | 1048 hPa | 0 mm | - | - | - |
| 1777677613 | 13.89° C | 69% | 1048 hPa | 0 mm | - | - | - |
| 1777675508 | 15° C | 71% | 1048.1 hPa | 0 mm | - | - | - |
| 1777675094 | 15° C | 71% | 1048 hPa | 0 mm | - | - | - |
| 1777674424 | 15° C | 70% | 1048 hPa | 0 mm | - | - | - |
| 1777655884 | 21.67° C | 55% | 1046.6 hPa | 0 mm | - | - | - |
| 1777651748 | 23.33° C | 51% | 1046.9 hPa | 0 mm | - | - | - |
* Rain latest hour (hover to see other rain measurements)
** Current wind speed in m/s (hover to see current wind gust speed)